createdAt,value
2018-05-18T00:00:38.180Z,99.99
2018-05-18T00:01:37.933Z,99.99
2018-05-18T00:02:37.937Z,99.99
2018-05-18T00:03:37.937Z,99.99
2018-05-18T00:04:37.970Z,99.99
2018-05-18T00:05:38.173Z,99.99
2018-05-18T00:06:37.986Z,99.99
2018-05-18T00:07:38.027Z,99.99
2018-05-18T00:08:38.016Z,99.99
2018-05-18T00:09:38.164Z,99.99
2018-05-18T00:10:38.142Z,99.99
2018-05-18T00:11:38.067Z,99.99
2018-05-18T00:12:38.205Z,99.99
2018-05-18T00:13:38.109Z,99.99
2018-05-18T00:14:38.234Z,99.99
2018-05-18T00:15:38.350Z,99.99
2018-05-18T00:16:38.139Z,99.99
2018-05-18T00:17:38.169Z,99.98
2018-05-18T00:18:38.160Z,99.78
2018-05-18T00:19:38.199Z,99.15
2018-05-18T00:20:38.196Z,99.06
2018-05-18T00:21:38.302Z,99.06
2018-05-18T00:22:38.236Z,98.96
2018-05-18T00:23:38.239Z,97.81
2018-05-18T00:24:38.247Z,97.42
2018-05-18T00:25:38.269Z,97.91
2018-05-18T00:26:38.392Z,97.81
2018-05-18T00:27:38.308Z,97.19
2018-05-18T00:28:38.321Z,96.85
2018-05-18T00:29:38.456Z,97.04
2018-05-18T00:30:38.471Z,96.75
2018-05-18T00:31:38.585Z,97.28
2018-05-18T00:32:38.379Z,96.85
2018-05-18T00:33:38.377Z,96.75
2018-05-18T00:34:38.405Z,96.94
2018-05-18T00:35:38.425Z,97.33
2018-05-18T00:36:38.432Z,97.14
2018-05-18T00:37:38.599Z,96.47
2018-05-18T00:38:38.461Z,97.24
2018-05-18T00:39:38.467Z,96.75
2018-05-18T00:40:38.489Z,97.52
2018-05-18T00:41:38.499Z,97.04
2018-05-18T00:42:38.677Z,97.33
2018-05-18T00:43:38.540Z,97.42
2018-05-18T00:44:38.542Z,97.71
2018-05-18T00:45:38.685Z,97.47
2018-05-18T00:46:38.571Z,98.14
2018-05-18T00:47:38.803Z,98.14
2018-05-18T00:48:38.728Z,97.86
2018-05-18T00:49:38.621Z,97.67
2018-05-18T00:50:38.637Z,97.67
2018-05-18T00:51:38.652Z,97.67
2018-05-18T00:52:38.772Z,97.96
2018-05-18T00:53:38.664Z,97.96
2018-05-18T00:54:38.685Z,97.96
2018-05-18T00:55:38.706Z,98.05
2018-05-18T00:56:38.708Z,98.72
2018-05-18T00:57:38.958Z,98.24
2018-05-18T00:58:38.876Z,98.63
2018-05-18T00:59:38.772Z,98.44
2018-05-18T01:00:38.904Z,98.53
2018-05-18T01:01:38.796Z,98.63
2018-05-18T01:02:39.035Z,98.72
2018-05-18T01:03:38.946Z,98.14
2018-05-18T01:05:38.862Z,98.53
2018-05-18T01:06:38.876Z,98.53
2018-05-18T01:07:39.036Z,99.01
2018-05-18T01:08:38.908Z,98.91
2018-05-18T01:09:38.900Z,98.91
2018-05-18T01:10:38.935Z,99.01
2018-05-18T01:11:38.940Z,98.91
2018-05-18T01:12:39.045Z,99.01
2018-05-18T01:13:39.091Z,98.91
2018-05-18T01:14:38.993Z,98.82
2018-05-18T01:15:39.002Z,98.24
2018-05-18T01:16:39.020Z,98.44
2018-05-18T01:17:39.300Z,98.72
2018-05-18T01:18:39.039Z,98.14
2018-05-18T01:19:39.178Z,98.53
2018-05-18T01:20:39.071Z,98.53
2018-05-18T01:21:39.095Z,98.91
2018-05-18T01:22:39.106Z,99.01
2018-05-18T01:23:39.204Z,98.86
2018-05-18T01:24:39.126Z,98.86
2018-05-18T01:25:39.148Z,98.86
2018-05-18T01:26:39.281Z,98.96
2018-05-18T01:27:39.177Z,98.77
2018-05-18T01:28:39.286Z,98.86
2018-05-18T01:29:39.203Z,98.68
2018-05-18T01:30:39.215Z,98.10
2018-05-18T01:31:39.222Z,98.39
2018-05-18T01:32:39.260Z,97.76
2018-05-18T01:33:39.348Z,98.14
2018-05-18T01:34:39.273Z,97.96
2018-05-18T01:35:39.300Z,98.14
2018-05-18T01:36:39.303Z,98.05
2018-05-18T01:37:39.441Z,98.53
2018-05-18T01:38:39.457Z,97.66
2018-05-18T01:39:39.443Z,98.05
2018-05-18T01:40:39.365Z,98.63
2018-05-18T01:41:39.371Z,97.57
2018-05-18T01:42:39.454Z,97.57
2018-05-18T01:43:39.401Z,97.57
2018-05-18T01:44:39.406Z,97.38
2018-05-18T01:45:39.571Z,97.47
2018-05-18T01:46:39.440Z,97.57
2018-05-18T01:47:39.584Z,97.28
2018-05-18T01:48:39.469Z,98.05
2018-05-18T01:49:39.612Z,97.38
2018-05-18T01:50:39.591Z,98.14
2018-05-18T01:51:39.526Z,97.24
2018-05-18T01:52:39.552Z,97.71
2018-05-18T01:53:39.671Z,97.61
2018-05-18T01:54:39.688Z,97.33
2018-05-18T01:55:39.680Z,98.19
2018-05-18T01:56:39.592Z,97.24
2018-05-18T01:57:39.609Z,97.33
2018-05-18T01:58:39.627Z,96.75
2018-05-18T01:59:39.633Z,96.85
2018-05-18T02:00:39.869Z,97.24
2018-05-18T02:01:39.671Z,97.61
2018-05-18T02:02:39.674Z,97.52
2018-05-18T02:03:39.677Z,97.14
2018-05-18T02:04:39.702Z,96.94
2018-05-18T02:05:39.812Z,96.94
2018-05-18T02:06:39.742Z,96.66
2018-05-18T02:07:39.749Z,96.18
2018-05-18T02:08:39.769Z,96.80
2018-05-18T02:09:39.896Z,96.70
2018-05-18T02:10:39.893Z,96.99
2018-05-18T02:11:39.810Z,96.80
2018-05-18T02:12:39.824Z,97.09
2018-05-18T02:13:39.836Z,96.70
2018-05-18T02:14:39.856Z,96.80
2018-05-18T02:15:40.086Z,97.19
2018-05-18T02:16:40.004Z,97.38
2018-05-18T02:17:39.891Z,97.47
2018-05-18T02:18:39.896Z,97.28
2018-05-18T02:19:39.915Z,97.47
2018-05-18T02:20:40.027Z,97.38
2018-05-18T02:21:39.956Z,98.05
2018-05-18T02:22:39.962Z,97.47
2018-05-18T02:23:39.963Z,98.14
2018-05-18T02:24:39.977Z,97.91
2018-05-18T02:25:40.229Z,97.24
2018-05-18T02:26:40.140Z,97.14
2018-05-18T02:27:40.038Z,96.94
2018-05-18T02:28:40.046Z,97.52
2018-05-18T02:29:40.183Z,97.33
2018-05-18T02:30:40.085Z,97.14
2018-05-18T02:31:40.204Z,96.85
2018-05-18T02:32:40.102Z,97.24
2018-05-18T02:33:40.240Z,96.75
2018-05-18T02:34:40.135Z,96.66
2018-05-18T02:35:40.143Z,97.42
2018-05-18T02:36:40.163Z,97.33
2018-05-18T02:37:40.283Z,97.52
2018-05-18T02:38:40.186Z,96.66
2018-05-18T02:39:40.328Z,96.85
2018-05-18T02:40:40.217Z,96.85
2018-05-18T02:41:40.226Z,96.66
2018-05-18T02:42:40.340Z,96.75
2018-05-18T02:43:40.244Z,96.94
2018-05-18T02:44:40.287Z,96.56
2018-05-18T02:45:40.286Z,96.89
2018-05-18T02:46:40.342Z,96.70
2018-05-18T02:47:40.402Z,96.03
2018-05-18T02:48:40.341Z,95.79
2018-05-18T02:49:40.356Z,95.89
2018-05-18T02:50:40.479Z,94.83
2018-05-18T02:51:40.375Z,95.03
2018-05-18T02:52:40.607Z,96.18
2018-05-18T02:53:40.526Z,95.98
2018-05-18T02:54:40.421Z,95.98
2018-05-18T02:55:40.551Z,96.18
2018-05-18T02:56:40.447Z,96.27
2018-05-18T02:57:40.542Z,96.08
2018-05-18T02:58:40.462Z,96.47
2018-05-18T02:59:40.471Z,95.60
2018-05-18T03:00:40.509Z,95.70
2018-05-18T03:01:40.510Z,96.56
2018-05-18T03:02:40.636Z,96.18
2018-05-18T03:03:40.544Z,96.27
2018-05-18T03:04:40.562Z,96.18
2018-05-18T03:05:40.575Z,96.18
2018-05-18T03:06:40.588Z,95.89
2018-05-18T03:07:40.689Z,95.98
2018-05-18T03:08:40.615Z,96.37
2018-05-18T03:09:40.746Z,95.84
2018-05-18T03:10:40.763Z,96.32
2018-05-18T03:11:40.651Z,95.75
2018-05-18T03:12:40.775Z,95.75
2018-05-18T03:13:40.693Z,96.13
2018-05-18T03:14:40.694Z,95.75
2018-05-18T03:15:40.696Z,95.75
2018-05-18T03:16:40.709Z,96.03
2018-05-18T03:17:40.823Z,96.03
2018-05-18T03:18:40.871Z,96.03
2018-05-18T03:19:40.771Z,96.03
2018-05-18T03:20:40.781Z,95.84
2018-05-18T03:21:40.793Z,95.84
2018-05-18T03:22:41.027Z,96.03
2018-05-18T03:23:40.940Z,94.79
2018-05-18T03:24:40.836Z,95.46
2018-05-18T03:25:40.837Z,96.03
2018-05-18T03:26:40.856Z,95.75
2018-05-18T03:27:41.101Z,95.65
2018-05-18T03:29:40.900Z,94.69
2018-05-18T03:30:40.927Z,95.55
2018-05-18T03:31:40.932Z,94.59
2018-05-18T03:32:41.032Z,94.88
2018-05-18T03:33:41.078Z,94.79
2018-05-18T03:34:41.096Z,95.07
2018-05-18T03:35:41.109Z,95.17
2018-05-18T03:36:41.009Z,94.88
2018-05-18T03:37:41.101Z,94.69
2018-05-18T03:38:41.024Z,95.26
2018-05-18T03:39:41.033Z,94.88
2018-05-18T03:40:41.057Z,95.26
2018-05-18T03:41:41.056Z,94.88
2018-05-18T03:42:41.190Z,95.17
2018-05-18T03:43:41.096Z,94.12
2018-05-18T03:44:41.117Z,94.59
2018-05-18T03:45:41.132Z,94.31
2018-05-18T03:46:41.141Z,94.31
2018-05-18T03:47:41.153Z,94.12
2018-05-18T03:48:41.264Z,94.88
2018-05-18T03:49:41.188Z,94.79
2018-05-18T03:50:41.192Z,94.88
2018-05-18T03:51:41.329Z,95.36
2018-05-18T03:52:41.219Z,95.07
2018-05-18T03:53:41.336Z,95.17
2018-05-18T03:54:41.238Z,94.21
2018-05-18T03:55:41.261Z,94.40
2018-05-18T03:56:41.278Z,93.92
2018-05-18T03:57:41.290Z,94.12
2018-05-18T03:58:41.405Z,94.31
2018-05-18T03:59:41.305Z,94.02
2018-05-18T04:00:41.332Z,94.40
2018-05-18T04:01:41.339Z,94.21
2018-05-18T04:02:41.377Z,94.59
2018-05-18T04:03:41.496Z,93.73
2018-05-18T04:04:41.495Z,93.82
2018-05-18T04:05:41.404Z,93.82
2018-05-18T04:06:41.412Z,94.21
2018-05-18T04:07:41.432Z,94.31
2018-05-18T04:08:41.568Z,94.31
2018-05-18T04:09:41.551Z,94.31
2018-05-18T04:10:41.456Z,94.40
2018-05-18T04:11:41.493Z,94.49
2018-05-18T04:12:41.495Z,94.40
2018-05-18T04:13:41.497Z,94.31
2018-05-18T04:14:41.748Z,94.49
2018-05-18T04:15:41.658Z,94.02
2018-05-18T04:16:41.565Z,94.12
2018-05-18T04:17:41.561Z,94.21
2018-05-18T04:18:41.703Z,94.12
2018-05-18T04:19:41.690Z,94.31
2018-05-18T04:20:41.615Z,94.40
2018-05-18T04:21:41.615Z,94.31
2018-05-18T04:22:41.639Z,94.79
2018-05-18T04:23:41.646Z,93.82
2018-05-18T04:24:41.887Z,94.12
2018-05-18T04:25:41.688Z,93.82
2018-05-18T04:26:41.683Z,93.82
2018-05-18T04:27:41.693Z,94.21
2018-05-18T04:28:41.710Z,94.31
2018-05-18T04:29:41.832Z,94.49
2018-05-18T04:30:41.732Z,94.40
2018-05-18T04:31:41.752Z,94.21
2018-05-18T04:32:41.759Z,94.31
2018-05-18T04:33:41.790Z,93.92
2018-05-18T04:34:41.995Z,94.31
2018-05-18T04:35:41.816Z,93.63
2018-05-18T04:36:41.952Z,94.12
2018-05-18T04:37:41.840Z,93.82
2018-05-18T04:38:41.978Z,94.49
2018-05-18T04:39:41.963Z,93.82
2018-05-18T04:40:42.005Z,94.49
2018-05-18T04:41:41.908Z,94.40
2018-05-18T04:42:41.908Z,93.92
2018-05-18T04:43:41.910Z,94.12
2018-05-18T04:44:42.126Z,93.92
2018-05-18T04:45:41.951Z,94.40
2018-05-18T04:46:41.977Z,94.31
2018-05-18T04:47:41.982Z,94.59
2018-05-18T04:48:41.985Z,94.31
2018-05-18T04:49:42.011Z,94.02
2018-05-18T04:50:42.118Z,93.82
2018-05-18T04:51:42.038Z,94.40
2018-05-18T04:52:42.045Z,94.69
2018-05-18T04:53:42.184Z,94.31
2018-05-18T04:54:42.072Z,94.31
2018-05-18T04:55:42.078Z,94.49
2018-05-18T04:56:42.200Z,94.21
2018-05-18T04:57:42.110Z,94.31
2018-05-18T04:58:42.132Z,94.49
2018-05-18T04:59:42.137Z,94.69
2018-05-18T05:00:42.158Z,94.12
2018-05-18T05:01:42.159Z,94.31
2018-05-18T05:02:42.299Z,94.40
2018-05-18T05:03:42.208Z,94.49
2018-05-18T05:04:42.204Z,94.31
2018-05-18T05:05:42.351Z,95.07
2018-05-18T05:06:42.363Z,95.07
2018-05-18T05:07:42.352Z,95.26
2018-05-18T05:08:42.271Z,95.07
2018-05-18T05:09:42.284Z,94.88
2018-05-18T05:10:42.302Z,95.17
2018-05-18T05:11:42.318Z,94.98
2018-05-18T05:12:42.419Z,95.07
2018-05-18T05:13:42.336Z,95.07
2018-05-18T05:14:42.358Z,95.26
2018-05-18T05:15:42.358Z,94.98
2018-05-18T05:16:42.386Z,95.07
2018-05-18T05:17:42.384Z,94.88
2018-05-18T05:18:42.506Z,94.21
2018-05-18T05:19:42.427Z,94.12
2018-05-18T05:20:42.434Z,95.07
2018-05-18T05:21:42.571Z,95.26
2018-05-18T05:22:42.470Z,95.36
2018-05-18T05:23:42.641Z,94.69
2018-05-18T05:24:42.496Z,95.07
2018-05-18T05:25:42.495Z,95.17
2018-05-18T05:26:42.641Z,95.36
2018-05-18T05:27:42.530Z,94.98
2018-05-18T05:28:42.765Z,95.26
2018-05-18T05:29:42.565Z,95.07
2018-05-18T05:30:42.573Z,94.79
2018-05-18T05:31:42.596Z,95.26
2018-05-18T05:32:42.662Z,95.26
2018-05-18T05:33:42.714Z,95.26
2018-05-18T05:34:42.634Z,94.98
2018-05-18T05:35:42.641Z,95.07
2018-05-18T05:36:42.719Z,95.17
2018-05-18T05:37:42.789Z,94.31
2018-05-18T05:38:42.831Z,94.49
2018-05-18T05:39:42.707Z,95.36
2018-05-18T05:40:42.717Z,94.31
2018-05-18T05:41:42.714Z,94.49
2018-05-18T05:42:42.739Z,94.31
2018-05-18T05:43:42.862Z,95.17
2018-05-18T05:44:42.757Z,95.07
2018-05-18T05:45:42.778Z,94.49
2018-05-18T05:46:42.913Z,93.82
2018-05-18T05:47:42.926Z,94.12
2018-05-18T05:48:42.926Z,94.31
2018-05-18T05:49:42.953Z,93.92
2018-05-18T05:50:42.970Z,94.40
2018-05-18T05:51:42.855Z,94.31
2018-05-18T05:52:42.998Z,94.69
2018-05-18T05:53:42.989Z,94.49
2018-05-18T05:54:42.889Z,94.69
2018-05-18T05:55:42.915Z,94.26
2018-05-18T05:56:42.937Z,94.45
2018-05-18T05:57:42.941Z,94.49
2018-05-18T05:58:43.047Z,93.82
2018-05-18T05:59:42.956Z,94.26
2018-05-18T06:00:42.974Z,94.64
2018-05-18T06:01:43.118Z,94.26
2018-05-18T06:02:43.012Z,94.17
2018-05-18T06:03:43.248Z,94.17
2018-05-18T06:04:43.029Z,94.17
2018-05-18T06:05:43.175Z,94.17
2018-05-18T06:06:43.077Z,94.35
2018-05-18T06:07:43.087Z,94.26
2018-05-18T06:08:43.100Z,95.03
2018-05-18T06:09:43.210Z,95.03
2018-05-18T06:10:43.118Z,94.45
2018-05-18T06:11:43.142Z,93.78
2018-05-18T06:12:43.135Z,94.26
2018-05-18T06:13:43.151Z,94.26
2018-05-18T06:14:43.281Z,94.64
2018-05-18T06:15:43.173Z,94.45
2018-05-18T06:16:43.197Z,94.17
2018-05-18T06:17:43.222Z,94.07
2018-05-18T06:18:43.214Z,94.07
2018-05-18T06:19:43.343Z,94.07
2018-05-18T06:20:43.255Z,93.88
2018-05-18T06:21:43.391Z,94.17
2018-05-18T06:22:43.291Z,94.07
2018-05-18T06:23:43.283Z,93.59
2018-05-18T06:24:43.318Z,93.30
2018-05-18T06:25:43.428Z,93.68
2018-05-18T06:26:43.329Z,94.07
2018-05-18T06:27:43.471Z,94.17
2018-05-18T06:28:43.408Z,93.97
2018-05-18T06:29:43.499Z,93.68
2018-05-18T06:30:43.512Z,94.26
2018-05-18T06:31:43.625Z,94.07
2018-05-18T06:32:43.418Z,93.97
2018-05-18T06:33:43.556Z,93.59
2018-05-18T06:34:43.461Z,93.21
2018-05-18T06:35:43.458Z,93.11
2018-05-18T06:36:43.525Z,94.07
2018-05-18T06:37:43.491Z,93.97
2018-05-18T06:38:43.494Z,93.11
2018-05-18T06:39:43.635Z,93.68
2018-05-18T06:40:43.520Z,93.78
2018-05-18T06:41:43.647Z,94.07
2018-05-18T06:42:43.674Z,93.49
2018-05-18T06:43:43.564Z,93.11
2018-05-18T06:44:43.587Z,94.17
2018-05-18T06:45:43.714Z,94.07
2018-05-18T06:46:43.833Z,93.21
2018-05-18T06:47:43.632Z,93.49
2018-05-18T06:48:43.641Z,93.21
2018-05-18T06:49:43.644Z,93.25
2018-05-18T06:50:43.667Z,93.30
2018-05-18T06:51:43.767Z,93.15
2018-05-18T06:52:43.809Z,93.15
2018-05-18T06:53:43.708Z,93.78
2018-05-18T06:54:43.707Z,93.21
2018-05-18T06:55:43.849Z,94.02
2018-05-18T06:56:43.841Z,94.07
2018-05-18T06:57:43.758Z,93.68
2018-05-18T06:58:43.923Z,93.40
2018-05-18T06:59:43.782Z,93.30
2018-05-18T07:00:43.915Z,93.40
2018-05-18T07:01:44.030Z,94.17
2018-05-18T07:02:43.809Z,93.21
2018-05-18T07:03:43.960Z,93.11
2018-05-18T07:04:43.970Z,93.30
2018-05-18T07:05:43.859Z,93.01
2018-05-18T07:06:43.974Z,93.30
2018-05-18T07:07:43.892Z,93.49
2018-05-18T07:08:43.904Z,93.11
2018-05-18T07:09:44.044Z,93.11
2018-05-18T07:10:43.916Z,93.49
2018-05-18T07:11:44.037Z,93.68
2018-05-18T07:12:43.962Z,92.91
2018-05-18T07:13:43.972Z,93.59
2018-05-18T07:14:43.984Z,93.01
2018-05-18T07:15:44.008Z,93.21
2018-05-18T07:16:44.115Z,93.11
2018-05-18T07:17:44.051Z,93.21
2018-05-18T07:18:44.025Z,93.21
2018-05-18T07:19:44.052Z,93.40
2018-05-18T07:20:44.073Z,93.21
2018-05-18T07:21:44.299Z,93.40
2018-05-18T07:22:44.089Z,93.11
2018-05-18T07:23:44.225Z,93.30
2018-05-18T07:24:44.242Z,93.59
2018-05-18T07:25:44.135Z,93.40
2018-05-18T07:26:44.369Z,92.91
2018-05-18T07:27:44.168Z,93.11
2018-05-18T07:28:44.179Z,93.30
2018-05-18T07:29:44.309Z,93.40
2018-05-18T07:30:44.201Z,92.82
2018-05-18T07:31:44.214Z,93.11
2018-05-18T07:32:44.400Z,93.01
2018-05-18T07:33:44.362Z,93.01
2018-05-18T07:34:44.249Z,93.59
2018-05-18T07:35:44.389Z,93.11
2018-05-18T07:36:44.402Z,92.82
2018-05-18T07:37:44.415Z,92.91
2018-05-18T07:38:44.414Z,92.82
2018-05-18T07:39:44.313Z,93.59
2018-05-18T07:40:44.455Z,93.40
2018-05-18T07:41:44.340Z,93.21
2018-05-18T07:42:44.347Z,93.01
2018-05-18T07:43:44.599Z,93.59
2018-05-18T07:44:44.382Z,93.01
2018-05-18T07:45:44.387Z,93.40
2018-05-18T07:46:44.418Z,93.40
2018-05-18T07:47:44.428Z,93.01
2018-05-18T07:48:44.550Z,92.72
2018-05-18T07:49:44.449Z,93.40
2018-05-18T07:50:44.475Z,93.01
2018-05-18T07:51:44.481Z,93.68
2018-05-18T07:52:44.620Z,92.91
2018-05-18T07:53:44.653Z,93.21
2018-05-18T07:54:44.536Z,93.11
2018-05-18T07:55:44.531Z,93.21
2018-05-18T07:56:44.543Z,93.01
2018-05-18T07:57:44.572Z,92.72
2018-05-18T07:58:44.632Z,93.01
2018-05-18T07:59:44.588Z,93.11
2018-05-18T08:00:44.596Z,93.01
2018-05-18T08:01:44.606Z,92.82
2018-05-18T08:02:44.626Z,92.91
2018-05-18T08:03:44.866Z,93.21
2018-05-18T08:04:44.655Z,93.30
2018-05-18T08:05:44.671Z,93.30
2018-05-18T08:06:44.808Z,92.82
2018-05-18T08:07:44.793Z,92.91
2018-05-18T08:08:44.818Z,92.82
2018-05-18T08:09:44.723Z,92.72
2018-05-18T08:10:44.861Z,92.91
2018-05-18T08:11:44.744Z,92.91
2018-05-18T08:12:44.775Z,92.72
2018-05-18T08:13:44.885Z,92.72
2018-05-18T08:14:44.791Z,93.01
2018-05-18T08:15:44.929Z,92.91
2018-05-18T08:16:44.814Z,92.72
2018-05-18T08:17:44.834Z,93.11
2018-05-18T08:18:45.070Z,92.91
2018-05-18T08:19:44.861Z,92.91
2018-05-18T08:20:44.871Z,92.91
2018-05-18T08:21:45.012Z,92.82
2018-05-18T08:22:44.900Z,92.91
2018-05-18T08:23:45.136Z,93.01
2018-05-18T08:24:44.930Z,93.01
2018-05-18T08:25:45.066Z,93.01
2018-05-18T08:26:44.963Z,92.72
2018-05-18T08:27:45.178Z,92.82
2018-05-18T08:28:45.088Z,92.72
2018-05-18T08:29:45.003Z,93.21
2018-05-18T08:30:45.133Z,93.25
2018-05-18T08:31:45.020Z,93.11
2018-05-18T08:32:45.035Z,93.15
2018-05-18T08:33:45.149Z,93.11
2018-05-18T08:34:45.070Z,93.11
2018-05-18T08:35:45.204Z,92.86
2018-05-18T08:36:45.096Z,92.86
2018-05-18T08:37:45.090Z,92.86
2018-05-18T08:38:45.219Z,92.96
2018-05-18T08:39:45.125Z,93.15
2018-05-18T08:40:45.145Z,93.06
2018-05-18T08:41:45.165Z,92.86
2018-05-18T08:42:45.177Z,93.15
2018-05-18T08:43:45.297Z,93.54
2018-05-18T08:44:45.202Z,93.25
2018-05-18T08:45:45.206Z,93.35
2018-05-18T08:46:45.234Z,93.25
2018-05-18T08:47:45.237Z,93.35
2018-05-18T08:48:45.256Z,93.35
2018-05-18T08:49:45.436Z,93.35
2018-05-18T08:50:45.274Z,93.06
2018-05-18T08:51:45.299Z,93.15
2018-05-18T08:52:45.297Z,93.06
2018-05-18T08:53:45.307Z,93.92
2018-05-18T08:54:45.441Z,93.06
2018-05-18T08:55:45.356Z,93.35
2018-05-18T08:56:45.362Z,93.54
2018-05-18T08:57:45.360Z,93.25
2018-05-18T08:58:45.385Z,93.15
2018-05-18T08:59:45.507Z,93.73
2018-05-18T09:00:45.535Z,93.44
2018-05-18T09:01:45.425Z,93.15
2018-05-18T09:02:45.565Z,93.35
2018-05-18T09:03:45.446Z,93.35
2018-05-18T09:04:45.690Z,93.15
2018-05-18T09:05:45.490Z,93.15
2018-05-18T09:06:45.621Z,93.35
2018-05-18T09:07:45.521Z,93.25
2018-05-18T09:08:45.588Z,94.21
2018-05-18T09:09:45.759Z,93.25
2018-05-18T09:10:45.564Z,94.35
2018-05-18T09:11:45.581Z,93.97
2018-05-18T09:12:45.586Z,94.35
2018-05-18T09:13:45.716Z,93.97
2018-05-18T09:14:45.693Z,93.49
2018-05-18T09:15:45.671Z,93.01
2018-05-18T09:16:45.630Z,93.88
2018-05-18T09:17:45.656Z,93.30
2018-05-18T09:18:45.660Z,92.91
2018-05-18T09:19:45.781Z,93.30
2018-05-18T09:20:45.809Z,93.40
2018-05-18T09:21:45.714Z,93.59
2018-05-18T09:22:45.726Z,93.40
2018-05-18T09:23:45.850Z,92.91
2018-05-18T09:24:45.849Z,92.82
2018-05-18T09:25:45.760Z,93.11
2018-05-18T09:26:45.767Z,93.01
2018-05-18T09:27:45.786Z,93.21
2018-05-18T09:28:45.921Z,93.59
2018-05-18T09:29:45.907Z,93.40
2018-05-18T09:30:45.833Z,92.91
2018-05-18T09:31:45.961Z,93.40
2018-05-18T09:32:45.866Z,93.40
2018-05-18T09:33:45.853Z,93.15
2018-05-18T09:34:46.104Z,93.15
2018-05-18T09:35:46.019Z,93.35
2018-05-18T09:36:45.901Z,93.68
2018-05-18T09:37:45.921Z,93.44
2018-05-18T09:38:45.937Z,93.44
2018-05-18T09:39:46.045Z,93.35
2018-05-18T09:40:45.963Z,93.54
2018-05-18T09:41:46.099Z,94.07
2018-05-18T09:42:45.977Z,94.35
2018-05-18T09:43:46.043Z,93.88
2018-05-18T09:44:46.117Z,94.35
2018-05-18T09:45:46.030Z,93.97
2018-05-18T09:46:46.046Z,93.97
2018-05-18T09:47:46.177Z,93.11
2018-05-18T09:48:46.069Z,93.88
2018-05-18T09:49:46.307Z,93.59
2018-05-18T09:50:46.114Z,93.97
2018-05-18T09:51:46.111Z,93.88
2018-05-18T09:52:46.136Z,93.11
2018-05-18T09:53:46.135Z,93.40
2018-05-18T09:54:46.431Z,93.01
2018-05-18T09:55:46.288Z,92.82
2018-05-18T09:56:46.177Z,93.11
2018-05-18T09:57:46.317Z,92.68
2018-05-18T09:58:46.212Z,93.15
2018-05-18T09:59:46.325Z,93.25
2018-05-18T10:00:46.286Z,93.15
2018-05-18T10:01:46.244Z,93.44
2018-05-18T10:02:46.385Z,92.86
2018-05-18T10:03:46.275Z,92.91
2018-05-18T10:04:46.278Z,92.91
2018-05-18T10:05:46.406Z,93.20
2018-05-18T10:06:46.305Z,94.40
2018-05-18T10:07:46.453Z,94.21
2018-05-18T10:08:46.340Z,95.26
2018-05-18T10:09:46.480Z,95.36
2018-05-18T10:10:46.466Z,95.60
2018-05-18T10:11:46.382Z,96.17
2018-05-18T10:12:46.415Z,97.04
2018-05-18T10:13:46.404Z,98.82
2018-05-18T10:14:46.444Z,98.44
2018-05-18T10:15:46.670Z,98.05
2018-05-18T10:16:46.453Z,99.35
2018-05-18T10:17:46.484Z,98.58
2018-05-18T10:18:46.492Z,99.21
2018-05-18T10:19:46.508Z,99.30
2018-05-18T10:20:46.749Z,99.98
2018-05-18T10:21:46.661Z,99.84
2018-05-18T10:22:46.555Z,99.99
2018-05-18T10:23:46.586Z,99.99
2018-05-18T10:24:46.570Z,99.99
2018-05-18T10:25:46.711Z,99.84
2018-05-18T10:26:46.738Z,99.99
2018-05-18T10:27:46.638Z,99.99
2018-05-18T10:28:46.637Z,99.99
2018-05-18T10:29:46.788Z,99.99
2018-05-18T10:30:46.784Z,99.35
2018-05-18T10:31:46.701Z,99.35
2018-05-18T10:32:46.745Z,98.39
2018-05-18T10:33:46.749Z,98.49
2018-05-18T10:34:46.753Z,99.26
2018-05-18T10:35:46.990Z,99.07
2018-05-18T10:36:46.777Z,98.92
2018-05-18T10:37:46.921Z,98.73
2018-05-18T10:38:46.827Z,98.05
2018-05-18T10:39:46.953Z,97.38
2018-05-18T10:40:46.972Z,97.86
2018-05-18T10:41:46.857Z,97.33
2018-05-18T10:42:47.006Z,97.91
2018-05-18T10:43:46.890Z,96.94
2018-05-18T10:44:46.927Z,96.46
2018-05-18T10:45:47.049Z,95.98
2018-05-18T10:46:46.950Z,96.22
2018-05-18T10:47:46.980Z,95.64
2018-05-18T10:48:46.985Z,95.25
2018-05-18T10:49:47.131Z,95.45
2018-05-18T10:50:47.114Z,94.96
2018-05-18T10:51:47.167Z,93.99
2018-05-18T10:52:47.065Z,93.71
2018-05-18T10:53:47.077Z,94.29
2018-05-18T10:54:47.105Z,94.48
2018-05-18T10:55:47.229Z,93.71
2018-05-18T10:56:47.133Z,94.09
2018-05-18T10:57:47.155Z,93.75
2018-05-18T10:58:47.168Z,93.75
2018-05-18T10:59:47.183Z,93.99
2018-05-18T11:00:47.428Z,93.22
2018-05-18T11:01:47.213Z,92.64
2018-05-18T11:02:47.230Z,92.10
2018-05-18T11:03:47.384Z,90.75
2018-05-18T11:04:47.277Z,90.36
2018-05-18T11:05:47.404Z,90.17
2018-05-18T11:06:47.439Z,90.17
2018-05-18T11:07:47.339Z,89.20
2018-05-18T11:08:47.343Z,89.39
2018-05-18T11:09:47.364Z,89.63
2018-05-18T11:10:47.491Z,88.28
2018-05-18T11:11:47.399Z,87.89
2018-05-18T11:12:47.550Z,87.99
2018-05-18T11:13:47.444Z,87.70
2018-05-18T11:14:47.590Z,87.70
2018-05-18T11:15:47.585Z,87.70
2018-05-18T11:16:47.626Z,87.60
2018-05-18T11:17:47.519Z,87.02
2018-05-18T11:18:47.533Z,85.71
2018-05-18T11:19:47.562Z,85.61
2018-05-18T11:20:47.683Z,85.03
2018-05-18T11:21:47.613Z,84.10
2018-05-18T11:22:47.613Z,84.10
2018-05-18T11:23:47.650Z,84.20
2018-05-18T11:24:47.666Z,83.07
2018-05-18T11:25:47.789Z,82.53
2018-05-18T11:26:47.821Z,81.57
2018-05-18T11:27:47.836Z,81.41
2018-05-18T11:28:47.805Z,81.02
2018-05-18T11:29:47.743Z,78.34
2018-05-18T11:30:47.879Z,79.02
2018-05-18T11:31:47.916Z,76.64
2018-05-18T11:32:47.937Z,74.40
2018-05-18T11:33:47.829Z,74.01
2018-05-18T11:34:47.974Z,75.18
2018-05-18T11:35:47.980Z,72.88
2018-05-18T11:36:48.016Z,72.01
2018-05-18T11:37:48.036Z,71.42
2018-05-18T11:38:48.053Z,70.84
2018-05-18T11:39:47.954Z,71.52
2018-05-18T11:40:47.980Z,72.20
2018-05-18T11:41:48.091Z,70.39
2018-05-18T11:42:48.002Z,70.58
2018-05-18T11:43:48.028Z,69.22
2018-05-18T11:44:48.175Z,67.96
2018-05-18T11:45:48.194Z,68.15
2018-05-18T11:46:48.254Z,68.74
2018-05-18T11:47:48.122Z,68.84
2018-05-18T11:48:48.259Z,67.47
2018-05-18T11:49:48.159Z,68.15
2018-05-18T11:50:48.171Z,67.57
2018-05-18T11:51:48.467Z,66.99
2018-05-18T11:52:48.340Z,66.66
2018-05-18T11:53:48.245Z,67.54
2018-05-18T11:54:48.261Z,67.60
2018-05-18T11:55:48.279Z,70.19
2018-05-18T11:56:48.406Z,71.90
2018-05-18T11:57:48.439Z,73.46
2018-05-18T11:58:48.347Z,73.65
2018-05-18T11:59:48.366Z,73.26
2018-05-18T12:00:48.364Z,72.00
2018-05-18T12:01:48.545Z,71.36
2018-05-18T12:02:48.442Z,71.06
2018-05-18T12:03:48.447Z,71.16
2018-05-18T12:04:48.465Z,71.26
2018-05-18T12:05:48.476Z,70.57
2018-05-18T12:06:48.637Z,69.74
2018-05-18T12:07:48.640Z,68.48
2018-05-18T12:08:48.557Z,68.57
2018-05-18T12:09:48.556Z,68.87
2018-05-18T12:10:48.583Z,68.08
2018-05-18T12:11:48.820Z,68.57
2018-05-18T12:12:48.610Z,69.15
2018-05-18T12:13:48.639Z,68.38
2018-05-18T12:14:48.674Z,69.06
2018-05-18T12:15:48.800Z,69.15
2018-05-18T12:16:48.814Z,69.02
2018-05-18T12:17:48.740Z,69.80
2018-05-18T12:18:48.743Z,71.32
2018-05-18T12:19:48.881Z,70.97
2018-05-18T12:20:48.768Z,71.61
2018-05-18T12:21:48.904Z,72.39
2018-05-18T12:22:48.819Z,72.93
2018-05-18T12:23:48.852Z,73.42
2018-05-18T12:24:48.867Z,74.00
2018-05-18T12:25:48.890Z,74.64
2018-05-18T12:26:48.986Z,75.13
2018-05-18T12:27:48.942Z,75.13
2018-05-18T12:28:48.947Z,76.19
2018-05-18T12:29:48.953Z,75.90
2018-05-18T12:30:49.104Z,76.35
2018-05-18T12:31:49.134Z,77.45
2018-05-18T12:32:49.005Z,77.51
2018-05-18T12:33:49.033Z,76.87
2018-05-18T12:34:49.065Z,76.29
2018-05-18T12:35:49.075Z,76.19
2018-05-18T12:36:49.183Z,77.36
2018-05-18T12:37:49.101Z,77.65
2018-05-18T12:38:49.138Z,76.97
2018-05-18T12:39:49.158Z,76.68
2018-05-18T12:40:49.296Z,77.16
2018-05-18T12:41:49.288Z,76.87
2018-05-18T12:42:49.214Z,77.16
2018-05-18T12:43:49.231Z,77.42
2018-05-18T12:44:49.245Z,77.61
2018-05-18T12:45:49.389Z,78.87
2018-05-18T12:46:49.510Z,79.25
2018-05-18T12:47:49.309Z,78.83
2018-05-18T12:48:49.328Z,79.70
2018-05-18T12:49:49.348Z,79.60
2018-05-18T12:50:49.484Z,80.09
2018-05-18T12:51:49.538Z,79.70
2018-05-18T12:52:49.479Z,81.12
2018-05-18T12:53:49.544Z,81.02
2018-05-18T12:54:49.560Z,81.60